ADDS METAR Data INFO
IDs: Format: Raw Decoded Include TAF

Data at: 1843 UTC 17 Oct 2017

KGRN 171835Z AUTO 28004KT 10SM CLR 23/M05 A3004 RMK AO2 T02281046
KGRN 171815Z AUTO 30005KT 10SM CLR 23/M02 A3006 RMK AO2 T02251022
KGRN 171755Z AUTO 27008KT 10SM CLR 21/M02 A3007 RMK AO2 T02131022 10214 21019
KGRN 171735Z AUTO 29007KT 10SM CLR 21/M02 A3008 RMK AO2 T02121022
KGRN 171715Z AUTO 00000KT 10SM CLR 19/00 A3009 RMK AO2 T01940002
KGRN 171655Z AUTO 00000KT 10SM CLR 18/00 A3009 RMK AO2 T01760001
KGRN 171635Z AUTO 22004KT 10SM CLR 17/00 A3010 RMK AO2 T01710004
KGRN 171615Z AUTO 23004KT 10SM CLR 14/00 A3011 RMK AO2 T01440003
KGRN 171555Z AUTO 23004KT 10SM CLR 13/01 A3011 RMK AO2 T01280007
KGRN 171535Z AUTO 24005KT 10SM CLR 13/00 A3011 RMK AO2 T01270000
KGRN 171515Z AUTO 24007KT 10SM CLR 11/01 A3011 RMK AO2 T01090006
KGRN 171455Z AUTO 25005KT 10SM CLR 09/00 A3011 RMK AO2 T00860004
KGRN 171435Z AUTO 25005KT 10SM CLR 07/00 A3012 RMK AO2 T00740003
KGRN 171415Z AUTO 00000KT 10SM CLR 05/00 A3011 RMK AO2 T00471004
KGRN 171355Z AUTO 00000KT 10SM CLR 02/00 A3012 RMK AO2 T00161005
KGRN 171335Z AUTO 00000KT 10SM CLR 00/M03 A3011 RMK AO2 T00041031
KGRN 171315Z AUTO 00000KT 10SM CLR M01/M04 A3011 RMK AO2 T10121038
KGRN 171255Z AUTO 00000KT 10SM CLR M01/M03 A3012 RMK AO2 T10121035
KGRN 171235Z AUTO 00000KT 10SM CLR 00/M03 A3012 RMK AO2 T00001032
KGRN 171215Z AUTO 00000KT 10SM CLR 00/M03 A3012 RMK AO2 T10011032
KGRN 171155Z AUTO 00000KT 10SM CLR M01/M03 A3012 RMK AO2 T10091034 10047 21014
KGRN 171135Z AUTO 00000KT 10SM CLR M01/M03 A3012 RMK AO2 T10111035
KGRN 171115Z AUTO 00000KT 10SM CLR 00/M03 A3012 RMK AO2 T00011033
KGRN 171055Z AUTO 00000KT 10SM CLR 02/M02 A3012 RMK AO2 T00241018
KGRN 171035Z AUTO 00000KT 10SM CLR 03/M01 A3012 RMK AO2 T00261015
KGRN 171015Z AUTO 00000KT 10SM CLR 02/M02 A3012 RMK AO2 T00241018
KGRN 170955Z AUTO 00000KT 10SM CLR 03/M02 A3012 RMK AO2 T00281016
KGRN 170935Z AUTO 00000KT 10SM CLR 04/M02 A3013 RMK AO2 T00351016
KGRN 170915Z AUTO 25003KT 10SM CLR 04/M02 A3012 RMK AO2 T00351016
KGRN 170855Z AUTO 00000KT 10SM CLR 02/M02 A3013 RMK AO2 T00241020
KGRN 170835Z AUTO 25005KT 10SM CLR 04/M02 A3013 RMK AO2 T00391016
KGRN 170815Z AUTO 00000KT 10SM CLR 02/M02 A3013 RMK AO2 T00191018
KGRN 170755Z AUTO 00000KT 10SM CLR 02/M02 A3013 RMK AO2 T00211016
KGRN 170735Z AUTO 00000KT 10SM CLR 02/M01 A3013 RMK AO2 T00171012
KGRN 170715Z AUTO 27003KT 10SM CLR 01/M01 A3013 RMK AO2 T00121013
KGRN 170655Z AUTO 28004KT 10SM CLR 02/M01 A3013 RMK AO2 T00241013
KGRN 170635Z AUTO 00000KT 10SM CLR 03/M01 A3013 RMK AO2 T00301010
KGRN 170615Z AUTO 26003KT 10SM CLR 02/M01 A3013 RMK AO2 T00201014
KGRN 170555Z AUTO 00000KT 10SM CLR 02/M01 A3014 RMK AO2 T00181014 10165 20010 402371016
KGRN 170535Z AUTO 00000KT 10SM CLR 02/M01 A3013 RMK AO2 T00181010
KGRN 170515Z AUTO 28004KT 10SM CLR 02/M01 A3014 RMK AO2 T00221010
KGRN 170455Z AUTO 26003KT 10SM CLR 01/M01 A3014 RMK AO2 T00141011
KGRN 170435Z AUTO 00000KT 10SM CLR 01/M01 A3014 RMK AO2 T00111011
KGRN 170415Z AUTO 00000KT 10SM CLR 02/00 A3014 RMK AO2 T00221005
KGRN 170355Z AUTO 00000KT 10SM CLR 03/00 A3014 RMK AO2 T00281004
KGRN 170335Z AUTO 00000KT 10SM CLR 03/00 A3014 RMK AO2 T00291004
KGRN 170315Z AUTO 00000KT 10SM CLR 04/00 A3013 RMK AO2 T00351005
KGRN 170255Z AUTO 29003KT 10SM CLR 03/00 A3013 RMK AO2 T00321004
KGRN 170235Z AUTO 27004KT 10SM CLR 07/00 A3013 RMK AO2 T00671003
KGRN 170215Z AUTO 00000KT 10SM CLR 07/00 A3013 RMK AO2 T00670000
KGRN 170155Z AUTO 28003KT 10SM CLR 07/00 A3013 RMK AO2 T00650000
KGRN 170135Z AUTO 28004KT 10SM CLR 09/00 A3013 RMK AO2 T00910000
KGRN 170115Z AUTO 28004KT 10SM CLR 10/00 A3013 RMK AO2 T00980000
KGRN 170055Z AUTO 00000KT 10SM CLR 11/00 A3012 RMK AO2 T01080001
KGRN 170035Z AUTO 31005KT 10SM CLR 13/00 A3012 RMK AO2 T01270000
KGRN 170015Z AUTO 31007KT 10SM CLR 15/00 A3011 RMK AO2 T01450000
KGRN 162355Z AUTO 32005KT 10SM CLR 17/00 A3010 RMK AO2 T01691002 10237 20169
KGRN 162335Z AUTO 31003KT 10SM CLR 19/00 A3010 RMK AO2 T01891004
KGRN 162315Z AUTO 29003KT 10SM CLR 19/M01 A3009 RMK AO2 T01851010
KGRN 162255Z AUTO 29004KT 10SM CLR 19/M01 A3008 RMK AO2 T01901014
KGRN 162235Z AUTO 29006KT 10SM CLR 20/M03 A3009 RMK AO2 T01981027
KGRN 162215Z AUTO 31010KT 10SM CLR 21/M03 A3009 RMK AO2 T02131027
KGRN 162155Z AUTO 32007KT 10SM CLR 22/M04 A3008 RMK AO2 T02161044
KGRN 162135Z AUTO 30010G15KT 10SM CLR 22/M06 A3008 RMK AO2 T02211058
KGRN 162115Z AUTO 31008KT 10SM CLR 23/M05 A3008 RMK AO2 T02321053
KGRN 162055Z AUTO 30011KT 10SM CLR 23/M05 A3007 RMK AO2 T02311053
KGRN 162035Z AUTO 29013G19KT 10SM CLR 24/M05 A3008 RMK AO2 T02351053
KGRN 162015Z AUTO 30012KT 10SM CLR 24/M06 A3008 RMK AO2 T02361060
KGRN 161955Z AUTO 30014G17KT 10SM CLR 23/M05 A3008 RMK AO2 T02341049
KGRN 161935Z AUTO 30004KT 10SM CLR 23/M04 A3008 RMK AO2 T02301045
KGRN 161915Z AUTO 27006KT 250V330 10SM CLR 23/M05 A3010 RMK AO2 T02311048
KGRN 161855Z AUTO 31004KT 10SM CLR 23/M04 A3011 RMK AO2 T02261036
KGRN 161835Z AUTO 23006KT 10SM CLR 22/M02 A3012 RMK AO2 T02161018
KGRN 161815Z AUTO 24008KT 10SM CLR 21/M03 A3013 RMK AO2 T02141030
KGRN 161755Z AUTO 23004KT 10SM CLR 21/M03 A3014 RMK AO2 T02121028 10213 20020
KGRN 161735Z AUTO 25004KT 10SM CLR 20/M01 A3015 RMK AO2 T02001006
KGRN 161715Z AUTO 24005KT 10SM CLR 18/00 A3016 RMK AO2 T01841001
KGRN 161655Z AUTO 24004KT 10SM CLR 17/00 A3016 RMK AO2 T01681001
KGRN 161635Z AUTO 25007KT 10SM CLR 15/00 A3016 RMK AO2 T01471001
KGRN 161615Z AUTO 24007KT 10SM CLR 14/00 A3017 RMK AO2 T01431004
KGRN 161555Z AUTO 24007KT 10SM CLR 13/M01 A3018 RMK AO2 T01261008
KGRN 161535Z AUTO 24005KT 10SM CLR 11/00 A3018 RMK AO2 T01070000
KGRN 161515Z AUTO 24005KT 10SM CLR 10/00 A3018 RMK AO2 T00981002
KGRN 161455Z AUTO 25006KT 10SM CLR 09/M01 A3019 RMK AO2 T00881006
KGRN 161435Z AUTO 25008KT 10SM CLR 07/M01 A3018 RMK AO2 T00711010
KGRN 161415Z AUTO 24007KT 10SM CLR 06/M01 A3018 RMK AO2 T00551015
KGRN 161355Z AUTO 24003KT 10SM CLR 04/M02 A3018 RMK AO2 T00411018
KGRN 161335Z AUTO 25003KT 10SM CLR 03/M02 A3018 RMK AO2 T00321022
KGRN 161315Z AUTO 26005KT 10SM CLR 03/M02 A3018 RMK AO2 T00301025
KGRN 161255Z AUTO 25005KT 10SM CLR 02/M02 A3018 RMK AO2 T00221025
KGRN 161235Z AUTO 25006KT 10SM CLR 03/M02 A3019 RMK AO2 T00261022
KGRN 161215Z AUTO 24003KT 10SM CLR 03/M02 A3019 RMK AO2 T00271022
KGRN 161155Z AUTO 26005KT 10SM CLR 03/M02 A3019 RMK AO2 T00271022 10052 21016
KGRN 161135Z AUTO 27004KT 10SM CLR 03/M02 A3020 RMK AO2 T00291021
KGRN 161115Z AUTO 32003G14KT 10SM CLR 05/M02 A3021 RMK AO2 T00471022
KGRN 161055Z AUTO 23012KT 10SM CLR 05/M02 A3020 RMK AO2 T00501021
KGRN 161035Z AUTO 26008KT 10SM CLR 05/M02 A3021 RMK AO2 T00491020
KGRN 161015Z AUTO 26008KT 10SM CLR 05/M02 A3021 RMK AO2 T00521020
KGRN 160955Z AUTO 26008KT 10SM CLR 05/M02 A3022 RMK AO2 T00491018
KGRN 160935Z AUTO 25007KT 10SM CLR 05/M02 A3022 RMK AO2 T00501020
KGRN 160915Z AUTO 26003KT 10SM CLR 04/M02 A3022 RMK AO2 T00411020
KGRN 160855Z AUTO 30004KT 10SM CLR 03/M02 A3023 RMK AO2 T00251020
KGRN 160835Z AUTO 00000KT 10SM CLR 03/M02 A3024 RMK AO2 T00261020
KGRN 160815Z AUTO 00000KT 10SM CLR 04/M02 A3025 RMK AO2 T00371018
KGRN 160755Z AUTO 00000KT 10SM CLR 03/M02 A3025 RMK AO2 T00311020
KGRN 160735Z AUTO 24005KT 10SM CLR 04/M02 A3026 RMK AO2 T00421018
KGRN 160715Z AUTO 00000KT 10SM CLR 04/M02 A3027 RMK AO2 T00401020
KGRN 160655Z AUTO 22005KT 10SM CLR 01/M02 A3027 RMK AO2 T00061022